createdAt,value
2018-07-23T00:02:16.079Z,18.00
2018-07-23T00:04:47.236Z,17.90
2018-07-23T00:07:18.800Z,18.00
2018-07-23T00:09:48.329Z,18.00
2018-07-23T00:12:16.677Z,18.10
2018-07-23T00:14:45.253Z,18.10
2018-07-23T00:17:13.631Z,18.10
2018-07-23T00:19:42.069Z,18.10
2018-07-23T00:22:10.487Z,18.10
2018-07-23T00:24:39.324Z,18.10
2018-07-23T00:27:07.762Z,18.00
2018-07-23T00:29:36.126Z,18.00
2018-07-23T00:32:04.474Z,18.10
2018-07-23T00:37:01.191Z,18.10
2018-07-23T00:39:29.529Z,18.20
2018-07-23T00:41:57.905Z,18.20
2018-07-23T00:44:26.376Z,18.20
2018-07-23T00:46:54.811Z,18.20
2018-07-23T00:49:23.186Z,18.20
2018-07-23T00:51:51.552Z,18.20
2018-07-23T00:54:21.034Z,18.20
2018-07-23T00:56:49.409Z,18.20
2018-07-23T00:59:17.752Z,18.20
2018-07-23T01:01:46.090Z,18.20
2018-07-23T01:04:14.434Z,18.20
2018-07-23T01:06:43.061Z,18.20
2018-07-23T01:09:11.614Z,18.20
2018-07-23T01:11:40.113Z,18.20
2018-07-23T01:14:08.574Z,18.10
2018-07-23T01:16:37.072Z,18.00
2018-07-23T01:19:05.789Z,18.00
2018-07-23T01:21:34.462Z,18.00
2018-07-23T01:24:02.828Z,18.00
2018-07-23T01:26:31.200Z,17.90
2018-07-23T01:28:59.591Z,17.90
2018-07-23T01:31:28.073Z,17.80
2018-07-23T01:33:56.479Z,17.80
2018-07-23T01:36:25.413Z,17.80
2018-07-23T01:38:53.800Z,17.70
2018-07-23T01:41:22.167Z,17.70
2018-07-23T01:43:50.493Z,17.70
2018-07-23T01:46:18.835Z,17.70
2018-07-23T01:48:47.208Z,17.70
2018-07-23T01:51:15.542Z,17.70
2018-07-23T01:53:44.267Z,17.70
2018-07-23T01:56:13.618Z,17.70
2018-07-23T01:58:42.312Z,17.70
2018-07-23T02:01:11.970Z,17.70
2018-07-23T02:03:41.534Z,17.70
2018-07-23T02:08:38.470Z,17.80
2018-07-23T02:11:07.677Z,17.80
2018-07-23T02:13:36.086Z,17.80
2018-07-23T02:16:04.450Z,17.70
2018-07-23T02:18:33.371Z,17.70
2018-07-23T02:21:01.821Z,17.60
2018-07-23T02:23:30.188Z,17.60
2018-07-23T02:25:58.602Z,17.60
2018-07-23T02:28:27.184Z,17.60
2018-07-23T02:30:55.546Z,17.60
2018-07-23T02:33:24.118Z,17.50
2018-07-23T02:35:52.458Z,17.50
2018-07-23T02:38:20.833Z,17.50
2018-07-23T02:40:49.206Z,17.50
2018-07-23T02:43:17.576Z,17.50
2018-07-23T02:45:46.150Z,17.50
2018-07-23T02:50:42.589Z,17.50
2018-07-23T02:53:11.204Z,17.60
2018-07-23T02:55:39.999Z,17.60
2018-07-23T02:58:09.161Z,17.60
2018-07-23T03:00:37.513Z,17.70
2018-07-23T03:03:05.900Z,17.70
2018-07-23T03:05:34.311Z,17.70
2018-07-23T03:08:02.889Z,17.70
2018-07-23T03:10:31.374Z,17.70
2018-07-23T03:15:27.886Z,17.70
2018-07-23T03:17:56.276Z,17.70
2018-07-23T03:20:24.617Z,17.60
2018-07-23T03:22:53.161Z,17.60
2018-07-23T03:25:21.513Z,17.50
2018-07-23T03:27:50.165Z,17.50
2018-07-23T03:30:18.560Z,17.40
2018-07-23T03:32:47.555Z,17.40
2018-07-23T03:35:16.197Z,17.40
2018-07-23T03:37:44.533Z,17.40
2018-07-23T03:40:13.216Z,17.40
2018-07-23T03:42:41.604Z,17.40
2018-07-23T03:45:10.020Z,17.40
2018-07-23T03:47:42.569Z,17.40
2018-07-23T03:50:10.938Z,17.40
2018-07-23T03:52:39.320Z,17.40
2018-07-23T03:55:07.694Z,17.40
2018-07-23T03:57:36.688Z,17.50
2018-07-23T04:00:05.278Z,17.50
2018-07-23T04:02:33.630Z,17.60
2018-07-23T04:05:02.188Z,17.60
2018-07-23T04:07:30.531Z,17.70
2018-07-23T04:09:59.244Z,17.70
2018-07-23T04:12:27.595Z,17.70
2018-07-23T04:14:55.937Z,17.70
2018-07-23T04:17:24.386Z,17.70
2018-07-23T04:19:52.859Z,17.80
2018-07-23T04:24:49.592Z,17.80
2018-07-23T04:27:17.948Z,17.80
2018-07-23T04:29:46.398Z,17.80
2018-07-23T04:32:14.783Z,17.80
2018-07-23T04:34:43.256Z,17.80
2018-07-23T04:37:11.637Z,17.80
2018-07-23T04:39:40.314Z,17.90
2018-07-23T04:42:08.725Z,17.80
2018-07-23T04:44:37.250Z,17.80
2018-07-23T04:47:05.793Z,17.80
2018-07-23T04:49:34.153Z,17.80
2018-07-23T04:52:02.527Z,17.80
2018-07-23T04:54:33.152Z,17.80
2018-07-23T04:57:01.543Z,17.90
2018-07-23T04:59:30.293Z,17.80
2018-07-23T05:01:58.687Z,17.90
2018-07-23T05:04:27.180Z,17.90
2018-07-23T05:06:55.700Z,17.90
2018-07-23T05:09:24.180Z,17.90
2018-07-23T05:11:52.563Z,17.90
2018-07-23T05:14:21.727Z,17.90
2018-07-23T05:16:50.271Z,18.00
2018-07-23T05:19:18.643Z,18.00
2018-07-23T05:21:47.191Z,18.00
2018-07-23T05:24:15.512Z,18.00
2018-07-23T05:26:43.958Z,18.10
2018-07-23T05:29:12.320Z,18.20
2018-07-23T05:31:40.729Z,18.20
2018-07-23T05:36:40.416Z,18.20
2018-07-23T05:39:10.275Z,18.20
2018-07-23T05:41:38.650Z,18.30
2018-07-23T05:44:07.281Z,18.20
2018-07-23T05:46:35.730Z,18.30
2018-07-23T05:49:04.245Z,18.20
2018-07-23T05:51:32.581Z,18.20
2018-07-23T05:54:00.981Z,18.20
2018-07-23T05:56:29.293Z,18.20
2018-07-23T05:58:57.701Z,18.20
2018-07-23T06:01:26.278Z,18.10
2018-07-23T06:03:54.677Z,18.20
2018-07-23T06:06:23.136Z,18.20
2018-07-23T06:08:51.638Z,18.20
2018-07-23T06:11:20.260Z,18.20
2018-07-23T06:13:48.599Z,18.30
2018-07-23T06:16:17.230Z,18.30
2018-07-23T06:18:45.583Z,18.30
2018-07-23T06:21:13.963Z,18.30
2018-07-23T06:23:42.327Z,18.40
2018-07-23T06:26:10.675Z,18.40
2018-07-23T06:28:39.336Z,18.40
2018-07-23T06:31:07.693Z,18.40
2018-07-23T06:33:36.142Z,18.40
2018-07-23T06:36:04.484Z,18.50
2018-07-23T06:38:32.891Z,18.50
2018-07-23T06:41:01.396Z,18.50
2018-07-23T06:43:29.761Z,18.50
2018-07-23T06:45:58.333Z,18.60
2018-07-23T06:48:26.690Z,18.60
2018-07-23T06:50:55.255Z,18.60
2018-07-23T06:53:23.681Z,18.60
2018-07-23T06:55:52.049Z,18.60
2018-07-23T06:58:20.445Z,18.70
2018-07-23T07:00:48.850Z,18.80
2018-07-23T07:03:17.300Z,18.80
2018-07-23T07:05:45.891Z,18.80
2018-07-23T07:08:14.354Z,18.90
2018-07-23T07:10:42.710Z,18.90
2018-07-23T07:13:11.496Z,18.80
2018-07-23T07:15:39.889Z,18.80
2018-07-23T07:18:08.613Z,18.80
2018-07-23T07:20:37.495Z,18.80
2018-07-23T07:23:06.110Z,18.80
2018-07-23T07:25:34.642Z,18.80
2018-07-23T07:28:03.213Z,18.90
2018-07-23T07:30:31.604Z,18.90
2018-07-23T07:33:00.039Z,18.90
2018-07-23T07:35:28.382Z,19.00
2018-07-23T07:37:56.778Z,19.10
2018-07-23T07:40:25.416Z,19.20
2018-07-23T07:42:53.782Z,19.30
2018-07-23T07:45:22.274Z,19.40
2018-07-23T07:47:50.660Z,19.50
2018-07-23T07:50:19.015Z,19.50
2018-07-23T07:52:47.386Z,19.50
2018-07-23T07:55:16.618Z,19.60
2018-07-23T07:57:45.268Z,19.60
2018-07-23T08:00:13.817Z,19.70
2018-07-23T08:02:43.328Z,19.80
2018-07-23T08:05:12.416Z,19.80
2018-07-23T08:07:41.032Z,19.90
2018-07-23T08:10:09.389Z,20.00
2018-07-23T08:12:37.868Z,20.00
2018-07-23T08:15:06.863Z,20.10
2018-07-23T08:17:35.631Z,20.10
2018-07-23T08:20:04.789Z,20.20
2018-07-23T08:22:39.453Z,20.30
2018-07-23T08:25:08.172Z,20.40
2018-07-23T08:27:36.725Z,20.50
2018-07-23T08:30:06.621Z,20.50
2018-07-23T08:32:35.026Z,20.50
2018-07-23T08:35:03.777Z,20.60
2018-07-23T08:37:32.347Z,20.60
2018-07-23T08:42:29.060Z,20.70
2018-07-23T08:44:57.540Z,20.70
2018-07-23T08:47:26.418Z,20.80
2018-07-23T08:49:54.750Z,20.80
2018-07-23T08:52:23.328Z,20.90
2018-07-23T08:54:51.715Z,21.10
2018-07-23T08:57:21.310Z,21.10
2018-07-23T08:59:49.890Z,21.00
2018-07-23T09:02:18.380Z,21.00
2018-07-23T09:04:46.727Z,21.00
2018-07-23T09:07:15.565Z,21.00
2018-07-23T09:09:44.069Z,20.90
2018-07-23T09:12:12.643Z,20.90
2018-07-23T09:27:31.344Z,21.00
2018-07-23T09:29:59.805Z,21.30
2018-07-23T09:32:28.456Z,21.30
2018-07-23T09:34:57.262Z,21.30
2018-07-23T09:37:25.909Z,21.40
2018-07-23T09:39:54.918Z,21.40
2018-07-23T09:42:23.665Z,21.50
2018-07-23T09:44:52.115Z,21.60
2018-07-23T09:47:20.477Z,21.60
2018-07-23T09:49:48.954Z,21.60
2018-07-23T09:52:17.358Z,21.60
2018-07-23T09:54:45.758Z,21.80
2018-07-23T09:57:14.197Z,21.60
2018-07-23T09:59:42.584Z,21.70
2018-07-23T10:02:10.978Z,21.80
2018-07-23T10:04:39.401Z,21.90
2018-07-23T10:07:07.843Z,21.90
2018-07-23T10:09:36.649Z,21.90
2018-07-23T10:12:05.132Z,21.90
2018-07-23T10:14:33.515Z,22.00
2018-07-23T10:17:02.007Z,22.20
2018-07-23T10:19:30.732Z,22.30
2018-07-23T10:21:59.304Z,22.50
2018-07-23T10:24:27.732Z,22.80
2018-07-23T10:26:56.188Z,23.20
2018-07-23T10:29:24.661Z,23.30
2018-07-23T10:31:53.420Z,23.20
2018-07-23T10:34:21.851Z,23.20
2018-07-23T10:36:50.351Z,23.30
2018-07-23T10:39:18.841Z,23.40
2018-07-23T10:41:47.243Z,23.50
2018-07-23T10:44:15.747Z,23.50
2018-07-23T10:46:45.163Z,23.40
2018-07-23T10:49:13.652Z,23.20
2018-07-23T10:51:45.851Z,23.10
2018-07-23T10:54:14.485Z,23.00
2018-07-23T10:56:42.896Z,23.00
2018-07-23T10:59:11.425Z,23.00
2018-07-23T11:01:40.157Z,23.10
2018-07-23T11:04:08.818Z,23.50
2018-07-23T11:06:37.454Z,23.70
2018-07-23T11:09:07.603Z,23.70
2018-07-23T11:11:36.110Z,23.90
2018-07-23T11:14:04.902Z,24.20
2018-07-23T11:16:34.761Z,24.40
2018-07-23T11:19:06.919Z,24.40
2018-07-23T11:21:36.012Z,24.50
2018-07-23T11:24:04.629Z,24.60
2018-07-23T11:26:33.586Z,24.80
2018-07-23T11:31:30.809Z,25.30
2018-07-23T11:33:59.647Z,25.20
2018-07-23T11:36:29.010Z,24.80
2018-07-23T11:38:57.815Z,24.50
2018-07-23T11:41:26.629Z,24.40
2018-07-23T11:43:55.602Z,24.60
2018-07-23T11:46:24.986Z,24.70
2018-07-23T11:48:53.132Z,25.00
2018-07-23T11:51:21.936Z,25.10
2018-07-23T11:53:50.490Z,25.40
2018-07-23T11:56:18.868Z,25.60
2018-07-23T11:58:47.338Z,25.80
2018-07-23T12:01:15.787Z,25.60
2018-07-23T12:03:44.486Z,25.00
2018-07-23T12:06:12.938Z,24.60
2018-07-23T12:08:41.446Z,24.60
2018-07-23T12:11:09.859Z,24.20
2018-07-23T12:13:38.400Z,24.20
2018-07-23T12:16:06.932Z,24.40
2018-07-23T12:18:35.324Z,24.80
2018-07-23T12:21:03.726Z,25.30
2018-07-23T12:23:32.487Z,25.90
2018-07-23T12:26:00.929Z,26.40
2018-07-23T12:28:29.358Z,26.50
2018-07-23T12:30:57.762Z,26.60
2018-07-23T12:33:26.998Z,26.40
2018-07-23T12:35:58.012Z,26.20
2018-07-23T12:38:26.477Z,25.90
2018-07-23T12:40:54.853Z,25.50
2018-07-23T12:43:23.401Z,25.00
2018-07-23T12:45:51.791Z,24.80
2018-07-23T12:48:21.065Z,24.60
2018-07-23T12:50:49.428Z,24.50
2018-07-23T12:53:17.859Z,24.60
2018-07-23T12:55:46.534Z,24.60
2018-07-23T12:58:14.908Z,24.60
2018-07-23T13:00:43.398Z,24.80
2018-07-23T13:03:11.815Z,25.30
2018-07-23T13:05:40.485Z,25.70
2018-07-23T13:08:08.934Z,26.00
2018-07-23T13:10:37.868Z,26.60
2018-07-23T13:13:06.385Z,26.90
2018-07-23T13:15:34.857Z,27.20
2018-07-23T13:18:03.317Z,27.20
2018-07-23T13:20:31.645Z,26.70
2018-07-23T13:23:00.045Z,26.50
2018-07-23T13:25:30.378Z,26.30
2018-07-23T13:28:01.588Z,25.90
2018-07-23T13:30:31.861Z,25.80
2018-07-23T13:33:00.388Z,25.60
2018-07-23T13:35:30.257Z,25.60
2018-07-23T13:37:58.783Z,25.50
2018-07-23T13:40:27.454Z,25.60
2018-07-23T13:43:00.252Z,25.50
2018-07-23T13:45:28.881Z,25.40
2018-07-23T13:47:57.417Z,25.50
2018-07-23T13:50:25.794Z,25.90
2018-07-23T13:52:54.570Z,26.50
2018-07-23T13:55:23.262Z,27.00
2018-07-23T13:57:51.689Z,27.70
2018-07-23T14:00:21.597Z,28.20
2018-07-23T14:02:50.611Z,28.50
2018-07-23T14:05:19.906Z,28.60
2018-07-23T14:07:48.596Z,29.00
2018-07-23T14:10:18.044Z,29.40
2018-07-23T14:12:47.755Z,29.80
2018-07-23T14:15:16.826Z,30.30
2018-07-23T14:17:46.699Z,30.50
2018-07-23T14:20:16.152Z,30.60
2018-07-23T14:22:44.786Z,30.60
2018-07-23T14:25:13.775Z,30.60
2018-07-23T14:27:43.131Z,30.50
2018-07-23T14:30:12.493Z,30.20
2018-07-23T14:32:41.269Z,29.90
2018-07-23T14:35:09.961Z,29.60
2018-07-23T14:37:38.781Z,29.60
2018-07-23T14:40:07.477Z,29.60
2018-07-23T14:42:36.095Z,29.30
2018-07-23T14:45:05.496Z,28.90
2018-07-23T14:47:34.271Z,28.70
2018-07-23T14:50:02.998Z,28.50
2018-07-23T14:52:31.680Z,28.60
2018-07-23T14:55:03.133Z,28.80
2018-07-23T14:57:31.760Z,28.90
2018-07-23T15:00:03.490Z,29.10
2018-07-23T15:02:32.234Z,28.90
2018-07-23T15:05:00.902Z,28.60
2018-07-23T15:07:29.575Z,28.70
2018-07-23T15:10:06.119Z,28.20
2018-07-23T15:12:34.739Z,28.20
2018-07-23T15:15:03.768Z,28.30
2018-07-23T15:17:35.622Z,28.30
2018-07-23T15:20:04.829Z,28.30
2018-07-23T15:22:34.230Z,28.20
2018-07-23T15:25:03.214Z,28.20
2018-07-23T15:27:32.984Z,27.90
2018-07-23T15:30:02.038Z,27.80
2018-07-23T15:32:30.910Z,27.20
2018-07-23T15:34:59.551Z,26.80
2018-07-23T15:37:27.945Z,26.50
2018-07-23T15:39:56.799Z,26.30
2018-07-23T15:42:25.697Z,25.90
2018-07-23T15:44:54.249Z,26.00
2018-07-23T15:47:24.213Z,26.20
2018-07-23T15:49:52.627Z,26.40
2018-07-23T15:52:22.027Z,26.50
2018-07-23T15:54:50.715Z,26.60
2018-07-23T15:57:20.746Z,26.50
2018-07-23T15:59:49.122Z,26.40
2018-07-23T16:02:17.534Z,26.30
2018-07-23T16:04:46.290Z,26.30
2018-07-23T16:07:14.740Z,26.30
2018-07-23T16:09:43.742Z,26.00
2018-07-23T16:12:12.203Z,25.80
2018-07-23T16:14:40.606Z,25.50
2018-07-23T16:17:09.657Z,25.40
2018-07-23T16:19:38.172Z,25.30
2018-07-23T16:22:06.666Z,25.30
2018-07-23T16:24:35.644Z,25.50
2018-07-23T16:27:04.131Z,25.50
2018-07-23T16:29:32.596Z,25.50
2018-07-23T16:32:00.983Z,25.50
2018-07-23T16:34:29.923Z,25.50
2018-07-23T16:37:00.169Z,25.50
2018-07-23T16:39:28.597Z,25.40
2018-07-23T16:41:57.006Z,25.40
2018-07-23T16:44:25.659Z,25.30
2018-07-23T16:46:54.064Z,25.10
2018-07-23T16:49:22.624Z,24.80
2018-07-23T16:51:51.070Z,24.80
2018-07-23T16:54:19.625Z,24.90
2018-07-23T16:56:55.825Z,24.80
2018-07-23T16:59:24.210Z,24.80
2018-07-23T17:01:52.753Z,24.80
2018-07-23T17:04:23.113Z,25.00
2018-07-23T17:06:51.953Z,25.00
2018-07-23T17:09:23.323Z,25.00
2018-07-23T17:11:56.735Z,25.00
2018-07-23T17:14:26.246Z,24.90
2018-07-23T17:16:54.685Z,25.00
2018-07-23T17:19:23.294Z,25.10
2018-07-23T17:21:53.440Z,25.10
2018-07-23T17:24:22.694Z,25.20
2018-07-23T17:26:51.674Z,25.50
2018-07-23T17:29:20.083Z,25.60
2018-07-23T17:31:50.414Z,25.70
2018-07-23T17:34:19.028Z,25.50
2018-07-23T17:36:48.933Z,25.30
2018-07-23T17:39:17.498Z,25.10
2018-07-23T17:41:48.026Z,24.90
2018-07-23T17:44:16.635Z,24.70
2018-07-23T17:46:46.273Z,24.50
2018-07-23T17:49:14.717Z,24.40
2018-07-23T17:51:45.751Z,24.20
2018-07-23T17:54:14.675Z,24.20
2018-07-23T17:56:43.331Z,24.10
2018-07-23T17:59:13.779Z,24.10
2018-07-23T18:01:42.581Z,23.90
2018-07-23T18:04:11.130Z,23.90
2018-07-23T18:06:39.761Z,23.80
2018-07-23T18:09:11.157Z,23.70
2018-07-23T18:11:40.718Z,23.60
2018-07-23T18:14:09.548Z,23.60
2018-07-23T18:16:37.961Z,23.50
2018-07-23T18:19:06.511Z,23.30
2018-07-23T18:21:34.855Z,23.20
2018-07-23T18:24:03.335Z,23.20
2018-07-23T18:26:31.797Z,22.70
2018-07-23T18:29:00.193Z,23.00
2018-07-23T18:31:28.683Z,22.90
2018-07-23T18:33:57.142Z,22.90
2018-07-23T18:36:25.577Z,22.90
2018-07-23T18:38:55.147Z,22.90
2018-07-23T18:41:23.739Z,22.90
2018-07-23T18:43:53.400Z,22.80
2018-07-23T18:46:24.172Z,22.80
2018-07-23T18:49:31.371Z,22.70
2018-07-23T18:52:10.331Z,22.70
2018-07-23T18:54:46.400Z,22.70
2018-07-23T18:57:14.849Z,22.70
2018-07-23T18:59:43.257Z,22.70
2018-07-23T19:02:14.191Z,22.70
2018-07-23T19:04:42.653Z,22.20
2018-07-23T19:07:11.119Z,22.60
2018-07-23T19:09:41.129Z,22.60
2018-07-23T19:12:10.195Z,22.10
2018-07-23T19:14:38.929Z,22.60
2018-07-23T19:17:09.181Z,22.50
2018-07-23T19:19:38.047Z,22.60
2018-07-23T19:22:08.011Z,22.50
2018-07-23T19:24:36.635Z,22.50
2018-07-23T19:27:05.344Z,22.50
2018-07-23T19:29:33.777Z,22.50
2018-07-23T19:32:02.714Z,22.50
2018-07-23T19:34:31.263Z,22.50
2018-07-23T19:37:00.701Z,22.50
2018-07-23T19:39:30.041Z,22.40
2018-07-23T19:42:03.037Z,22.40
2018-07-23T19:44:36.980Z,22.30
2018-07-23T19:47:09.044Z,22.30
2018-07-23T19:49:46.154Z,22.20
2018-07-23T19:52:22.991Z,22.20
2018-07-23T19:54:52.538Z,22.20
2018-07-23T19:57:36.448Z,22.20
2018-07-23T20:00:05.202Z,22.10
2018-07-23T20:02:33.623Z,22.10
2018-07-23T20:05:02.166Z,22.10
2018-07-23T20:07:30.719Z,22.00
2018-07-23T20:09:59.220Z,22.00
2018-07-23T20:12:27.757Z,22.00
2018-07-23T20:14:56.424Z,22.00
2018-07-23T20:17:24.947Z,22.30
2018-07-23T20:19:53.394Z,21.90
2018-07-23T20:22:21.771Z,21.90
2018-07-23T20:24:50.863Z,21.80
2018-07-23T20:27:19.297Z,21.60
2018-07-23T20:29:47.702Z,21.40
2018-07-23T20:32:16.455Z,21.50
2018-07-23T20:34:45.697Z,21.30
2018-07-23T20:37:14.804Z,21.30
2018-07-23T20:39:43.368Z,21.30
2018-07-23T20:42:13.975Z,21.20
2018-07-23T20:44:42.925Z,21.10
2018-07-23T20:47:12.057Z,21.00
2018-07-23T20:49:41.578Z,21.00
2018-07-23T20:52:10.272Z,20.90
2018-07-23T20:54:38.931Z,20.70
2018-07-23T20:57:07.922Z,20.60
2018-07-23T20:59:37.004Z,20.60
2018-07-23T21:02:05.915Z,20.50
2018-07-23T21:04:34.343Z,20.50
2018-07-23T21:07:02.797Z,20.40
2018-07-23T21:09:31.141Z,20.40
2018-07-23T21:11:59.996Z,20.30
2018-07-23T21:14:28.418Z,20.20
2018-07-23T21:16:56.836Z,20.20
2018-07-23T21:19:25.235Z,20.10
2018-07-23T21:21:53.686Z,20.10
2018-07-23T21:24:22.433Z,20.10
2018-07-23T21:26:50.864Z,20.00
2018-07-23T21:29:19.246Z,20.00
2018-07-23T21:31:49.076Z,19.90
2018-07-23T21:34:17.694Z,20.00
2018-07-23T21:36:46.128Z,20.00
2018-07-23T21:39:14.560Z,20.00
2018-07-23T21:41:43.013Z,20.00
2018-07-23T21:44:12.275Z,20.00
2018-07-23T21:46:47.059Z,20.00
2018-07-23T21:49:15.744Z,20.00
2018-07-23T21:51:44.180Z,20.00
2018-07-23T21:54:12.618Z,20.00
2018-07-23T21:57:00.620Z,19.90
2018-07-23T21:59:29.174Z,19.90
2018-07-23T22:01:57.916Z,19.90
2018-07-23T22:04:26.422Z,19.90
2018-07-23T22:06:55.022Z,20.00
2018-07-23T22:09:23.570Z,20.00
2018-07-23T22:11:51.951Z,20.10
2018-07-23T22:14:21.381Z,20.10
2018-07-23T22:16:49.808Z,20.10
2018-07-23T22:19:20.680Z,20.20
2018-07-23T22:21:49.838Z,20.10
2018-07-23T22:24:18.370Z,20.10
2018-07-23T22:26:46.803Z,20.00
2018-07-23T22:29:16.095Z,20.00
2018-07-23T22:31:44.613Z,19.90
2018-07-23T22:34:13.319Z,19.90
2018-07-23T22:36:41.754Z,19.90
2018-07-23T22:39:12.212Z,19.90
2018-07-23T22:41:48.962Z,19.90
2018-07-23T22:44:17.326Z,19.80
2018-07-23T22:46:47.824Z,19.80
2018-07-23T22:49:31.119Z,19.80
2018-07-23T22:52:00.328Z,19.80
2018-07-23T22:54:28.898Z,19.80
2018-07-23T22:56:57.279Z,19.80
2018-07-23T22:59:25.861Z,19.90
2018-07-23T23:01:54.293Z,19.90
2018-07-23T23:04:22.997Z,19.90
2018-07-23T23:06:51.692Z,19.90
2018-07-23T23:09:20.419Z,19.90
2018-07-23T23:11:48.806Z,19.90
2018-07-23T23:14:17.317Z,19.80
2018-07-23T23:16:45.712Z,19.80
2018-07-23T23:19:14.225Z,19.70
2018-07-23T23:21:42.657Z,19.70
2018-07-23T23:24:11.155Z,19.70
2018-07-23T23:26:39.950Z,19.70
2018-07-23T23:31:37.103Z,19.70
2018-07-23T23:34:05.760Z,19.60
2018-07-23T23:36:34.170Z,19.50
2018-07-23T23:39:02.901Z,19.50
2018-07-23T23:41:31.367Z,19.50
2018-07-23T23:57:00.182Z,19.60
2018-07-23T23:59:28.800Z,19.40
